sensor_id;sensor_type;location;lat;lon;timestamp;pressure;altitude;pressure_sealevel;temperature;humidity
29941;BME280;16801;53.562;10.038;2023-09-12T00:02:18;101118.97;;;23.66;83.53
29941;BME280;16801;53.562;10.038;2023-09-12T00:05:39;101133.19;;;23.57;83.77
29941;BME280;16801;53.562;10.038;2023-09-12T00:09:00;101143.97;;;23.58;84.01
29941;BME280;16801;53.562;10.038;2023-09-12T00:12:24;101150.53;;;23.57;84.43
29941;BME280;16801;53.562;10.038;2023-09-12T00:15:45;101152.88;;;23.54;85.41
29941;BME280;16801;53.562;10.038;2023-09-12T00:19:06;101150.75;;;23.43;86.62
29941;BME280;16801;53.562;10.038;2023-09-12T00:22:27;101145.03;;;23.25;87.64
29941;BME280;16801;53.562;10.038;2023-09-12T00:25:49;101141.22;;;22.99;88.81
29941;BME280;16801;53.562;10.038;2023-09-12T00:29:11;101143.75;;;23.21;88.11
29941;BME280;16801;53.562;10.038;2023-09-12T00:32:32;101143.53;;;22.89;89.49
29941;BME280;16801;53.562;10.038;2023-09-12T00:35:53;101141.88;;;23.41;88.32
29941;BME280;16801;53.562;10.038;2023-09-12T00:39:14;101131.91;;;23.20;87.46
29941;BME280;16801;53.562;10.038;2023-09-12T00:42:37;101128.53;;;23.44;87.02
29941;BME280;16801;53.562;10.038;2023-09-12T00:46:00;101133.59;;;23.08;87.39
29941;BME280;16801;53.562;10.038;2023-09-12T00:49:21;101120.28;;;23.05;88.93
29941;BME280;16801;53.562;10.038;2023-09-12T00:52:43;101124.69;;;22.86;88.69
29941;BME280;16801;53.562;10.038;2023-09-12T00:56:06;101123.66;;;23.00;88.55
29941;BME280;16801;53.562;10.038;2023-09-12T00:59:27;101123.84;;;23.05;87.96
29941;BME280;16801;53.562;10.038;2023-09-12T01:02:52;101114.75;;;22.79;88.81
29941;BME280;16801;53.562;10.038;2023-09-12T01:06:14;101110.13;;;22.92;88.52
29941;BME280;16801;53.562;10.038;2023-09-12T01:09:39;101114.97;;;22.97;88.36
29941;BME280;16801;53.562;10.038;2023-09-12T01:13:01;101113.50;;;23.08;87.83
29941;BME280;16801;53.562;10.038;2023-09-12T01:16:22;101105.22;;;22.68;88.69
29941;BME280;16801;53.562;10.038;2023-09-12T01:19:44;101098.03;;;22.80;89.18
29941;BME280;16801;53.562;10.038;2023-09-12T01:23:26;101092.13;;;22.77;89.57
29941;BME280;16801;53.562;10.038;2023-09-12T01:30:27;101071.59;;;22.66;89.51
29941;BME280;16801;53.562;10.038;2023-09-12T01:33:49;101070.09;;;22.64;89.52
29941;BME280;16801;53.562;10.038;2023-09-12T01:37:10;101061.03;;;22.83;88.97
29941;BME280;16801;53.562;10.038;2023-09-12T01:40:37;101054.69;;;22.95;88.36
29941;BME280;16801;53.562;10.038;2023-09-12T01:44:01;101046.84;;;23.12;87.53
29941;BME280;16801;53.562;10.038;2023-09-12T01:47:25;101045.56;;;23.08;87.88
29941;BME280;16801;53.562;10.038;2023-09-12T01:50:47;101038.59;;;23.05;87.17
29941;BME280;16801;53.562;10.038;2023-09-12T01:54:09;101032.03;;;23.00;87.71
29941;BME280;16801;53.562;10.038;2023-09-12T01:57:31;101034.34;;;23.03;87.18
29941;BME280;16801;53.562;10.038;2023-09-12T02:00:52;101031.59;;;23.03;87.78
29941;BME280;16801;53.562;10.038;2023-09-12T02:04:16;101048.31;;;23.08;87.35
29941;BME280;16801;53.562;10.038;2023-09-12T02:07:38;101077.09;;;23.05;87.54
29941;BME280;16801;53.562;10.038;2023-09-12T02:10:59;101090.22;;;23.10;87.93
29941;BME280;16801;53.562;10.038;2023-09-12T02:14:20;101094.22;;;23.01;87.34
29941;BME280;16801;53.562;10.038;2023-09-12T02:17:41;101111.81;;;23.00;88.20
29941;BME280;16801;53.562;10.038;2023-09-12T02:21:03;101106.50;;;22.72;89.13
29941;BME280;16801;53.562;10.038;2023-09-12T02:24:24;101122.16;;;22.98;88.43
29941;BME280;16801;53.562;10.038;2023-09-12T02:27:45;101110.50;;;22.76;89.03
29941;BME280;16801;53.562;10.038;2023-09-12T02:31:10;101122.34;;;22.70;89.94
29941;BME280;16801;53.562;10.038;2023-09-12T02:34:32;101136.25;;;22.56;90.27
29941;BME280;16801;53.562;10.038;2023-09-12T02:37:54;101125.94;;;22.64;90.57
29941;BME280;16801;53.562;10.038;2023-09-12T02:41:15;101139.63;;;22.58;90.71
29941;BME280;16801;53.562;10.038;2023-09-12T02:44:36;101130.72;;;22.49;91.17
29941;BME280;16801;53.562;10.038;2023-09-12T02:47:57;101132.84;;;22.54;91.42
29941;BME280;16801;53.562;10.038;2023-09-12T02:51:18;101136.25;;;22.56;91.32
29941;BME280;16801;53.562;10.038;2023-09-12T02:54:40;101146.91;;;22.24;91.29
29941;BME280;16801;53.562;10.038;2023-09-12T02:58:38;101151.00;;;22.42;92.50
29941;BME280;16801;53.562;10.038;2023-09-12T03:01:59;101159.31;;;22.55;92.04
29941;BME280;16801;53.562;10.038;2023-09-12T03:05:20;101148.47;;;22.40;92.18
29941;BME280;16801;53.562;10.038;2023-09-12T03:08:41;101147.19;;;22.43;91.49
29941;BME280;16801;53.562;10.038;2023-09-12T03:12:04;101131.22;;;22.66;91.69
29941;BME280;16801;53.562;10.038;2023-09-12T03:15:25;101131.03;;;22.67;91.29
29941;BME280;16801;53.562;10.038;2023-09-12T03:18:46;101141.53;;;22.57;91.34
29941;BME280;16801;53.562;10.038;2023-09-12T03:22:07;101159.00;;;22.37;92.60
29941;BME280;16801;53.562;10.038;2023-09-12T03:25:29;101165.50;;;22.63;92.02
29941;BME280;16801;53.562;10.038;2023-09-12T03:28:51;101162.38;;;22.32;93.48
29941;BME280;16801;53.562;10.038;2023-09-12T03:32:12;101152.84;;;22.21;94.28
29941;BME280;16801;53.562;10.038;2023-09-12T03:35:33;101151.06;;;22.07;96.12
29941;BME280;16801;53.562;10.038;2023-09-12T03:38:55;101153.09;;;22.33;95.46
29941;BME280;16801;53.562;10.038;2023-09-12T03:42:16;101159.66;;;22.39;94.79
29941;BME280;16801;53.562;10.038;2023-09-12T03:45:38;101157.47;;;22.21;95.37
29941;BME280;16801;53.562;10.038;2023-09-12T03:48:59;101166.47;;;22.02;96.76
29941;BME280;16801;53.562;10.038;2023-09-12T03:52:20;101156.38;;;22.15;97.30
29941;BME280;16801;53.562;10.038;2023-09-12T03:55:41;101156.38;;;22.15;97.32
29941;BME280;16801;53.562;10.038;2023-09-12T03:59:03;101155.53;;;22.08;97.42
29941;BME280;16801;53.562;10.038;2023-09-12T04:02:25;101138.91;;;22.23;97.44
29941;BME280;16801;53.562;10.038;2023-09-12T04:05:46;101138.44;;;22.13;97.17
29941;BME280;16801;53.562;10.038;2023-09-12T04:09:07;101152.75;;;21.74;98.53
29941;BME280;16801;53.562;10.038;2023-09-12T04:12:28;101128.69;;;22.10;99.31
29941;BME280;16801;53.562;10.038;2023-09-12T04:15:49;101123.59;;;22.07;98.86
29941;BME280;16801;53.562;10.038;2023-09-12T04:19:11;101116.69;;;22.24;98.73
29941;BME280;16801;53.562;10.038;2023-09-12T04:22:33;101101.28;;;22.23;98.48
29941;BME280;16801;53.562;10.038;2023-09-12T04:25:54;101091.63;;;21.87;99.09
29941;BME280;16801;53.562;10.038;2023-09-12T04:29:15;101093.00;;;22.10;99.69
29941;BME280;16801;53.562;10.038;2023-09-12T04:32:36;101097.06;;;22.27;99.08
29941;BME280;16801;53.562;10.038;2023-09-12T04:36:00;101107.19;;;22.20;98.78
29941;BME280;16801;53.562;10.038;2023-09-12T04:39:21;101102.31;;;22.16;98.60
29941;BME280;16801;53.562;10.038;2023-09-12T04:42:42;101096.63;;;22.24;99.28
29941;BME280;16801;53.562;10.038;2023-09-12T04:46:03;101091.38;;;22.36;99.00
29941;BME280;16801;53.562;10.038;2023-09-12T04:49:24;101085.66;;;22.31;98.75
29941;BME280;16801;53.562;10.038;2023-09-12T04:52:46;101099.31;;;22.04;99.51
29941;BME280;16801;53.562;10.038;2023-09-12T04:56:07;101102.84;;;21.92;99.83
29941;BME280;16801;53.562;10.038;2023-09-12T04:59:29;101109.66;;;21.68;100.00
29941;BME280;16801;53.562;10.038;2023-09-12T05:02:51;101095.31;;;21.73;100.00
29941;BME280;16801;53.562;10.038;2023-09-12T05:06:12;101091.00;;;21.91;100.00
29941;BME280;16801;53.562;10.038;2023-09-12T05:09:35;101109.44;;;22.04;100.00
29941;BME280;16801;53.562;10.038;2023-09-12T05:12:55;101121.00;;;21.59;100.00
29941;BME280;16801;53.562;10.038;2023-09-12T05:16:17;101125.41;;;21.87;100.00
29941;BME280;16801;53.562;10.038;2023-09-12T05:19:38;101138.59;;;21.71;100.00
29941;BME280;16801;53.562;10.038;2023-09-12T05:22:59;101149.84;;;21.76;100.00
29941;BME280;16801;53.562;10.038;2023-09-12T05:26:21;101154.84;;;21.72;100.00
29941;BME280;16801;53.562;10.038;2023-09-12T05:29:42;101147.03;;;21.69;100.00
29941;BME280;16801;53.562;10.038;2023-09-12T05:33:04;101160.56;;;21.71;100.00
29941;BME280;16801;53.562;10.038;2023-09-12T05:36:25;101164.84;;;21.80;100.00
29941;BME280;16801;53.562;10.038;2023-09-12T05:39:47;101164.63;;;21.81;100.00
29941;BME280;16801;53.562;10.038;2023-09-12T05:43:09;101157.59;;;21.72;100.00
29941;BME280;16801;53.562;10.038;2023-09-12T05:46:31;101145.38;;;22.09;100.00
29941;BME280;16801;53.562;10.038;2023-09-12T05:49:52;101141.84;;;22.21;100.00
29941;BME280;16801;53.562;10.038;2023-09-12T05:53:14;101160.63;;;22.18;100.00
29941;BME280;16801;53.562;10.038;2023-09-12T05:56:35;101171.25;;;22.27;100.00
29941;BME280;16801;53.562;10.038;2023-09-12T05:59:58;101168.88;;;22.18;100.00
29941;BME280;16801;53.562;10.038;2023-09-12T06:03:21;101150.53;;;22.25;100.00
29941;BME280;16801;53.562;10.038;2023-09-12T06:06:42;101150.56;;;22.32;100.00
29941;BME280;16801;53.562;10.038;2023-09-12T06:10:03;101144.41;;;22.30;100.00
29941;BME280;16801;53.562;10.038;2023-09-12T06:13:24;101131.13;;;22.40;99.95
29941;BME280;16801;53.562;10.038;2023-09-12T06:16:46;101120.78;;;22.42;100.00
29941;BME280;16801;53.562;10.038;2023-09-12T06:20:08;101142.13;;;22.40;100.00
29941;BME280;16801;53.562;10.038;2023-09-12T06:23:29;101152.03;;;22.27;100.00
29941;BME280;16801;53.562;10.038;2023-09-12T06:26:50;101145.09;;;22.38;100.00
29941;BME280;16801;53.562;10.038;2023-09-12T06:30:12;101152.22;;;22.33;100.00
29941;BME280;16801;53.562;10.038;2023-09-12T06:33:35;101156.88;;;22.25;100.00
29941;BME280;16801;53.562;10.038;2023-09-12T06:36:56;101156.47;;;22.35;100.00
29941;BME280;16801;53.562;10.038;2023-09-12T06:40:17;101169.56;;;22.33;100.00
29941;BME280;16801;53.562;10.038;2023-09-12T06:43:38;101176.25;;;22.17;100.00
29941;BME280;16801;53.562;10.038;2023-09-12T06:46:59;101183.72;;;22.37;99.99
29941;BME280;16801;53.562;10.038;2023-09-12T06:50:21;101185.84;;;22.35;99.27
29941;BME280;16801;53.562;10.038;2023-09-12T06:53:42;101189.22;;;22.37;99.96
29941;BME280;16801;53.562;10.038;2023-09-12T06:57:04;101196.88;;;22.41;99.55
29941;BME280;16801;53.562;10.038;2023-09-12T07:00:24;101200.81;;;22.32;99.63
29941;BME280;16801;53.562;10.038;2023-09-12T07:03:46;101190.56;;;22.54;99.72
29941;BME280;16801;53.562;10.038;2023-09-12T07:07:08;101195.50;;;22.58;99.36
29941;BME280;16801;53.562;10.038;2023-09-12T07:10:29;101186.28;;;22.45;99.51
29941;BME280;16801;53.562;10.038;2023-09-12T07:13:50;101181.19;;;21.88;100.00
29941;BME280;16801;53.562;10.038;2023-09-12T07:17:11;101180.22;;;21.74;100.00
29941;BME280;16801;53.562;10.038;2023-09-12T07:20:32;101175.63;;;21.54;100.00
29941;BME280;16801;53.562;10.038;2023-09-12T07:23:54;101194.78;;;21.47;100.00
29941;BME280;16801;53.562;10.038;2023-09-12T07:27:15;101191.41;;;21.45;100.00
29941;BME280;16801;53.562;10.038;2023-09-12T07:30:37;101190.44;;;21.31;100.00
29941;BME280;16801;53.562;10.038;2023-09-12T07:33:58;101187.34;;;21.41;100.00
29941;BME280;16801;53.562;10.038;2023-09-12T07:37:19;101184.66;;;21.75;100.00
29941;BME280;16801;53.562;10.038;2023-09-12T07:40:41;101181.78;;;22.24;100.00
29941;BME280;16801;53.562;10.038;2023-09-12T07:44:03;101168.47;;;22.21;100.00
29941;BME280;16801;53.562;10.038;2023-09-12T07:47:24;101162.97;;;22.21;100.00
29941;BME280;16801;53.562;10.038;2023-09-12T07:50:45;101154.97;;;22.33;100.00
29941;BME280;16801;53.562;10.038;2023-09-12T07:54:06;101165.78;;;22.34;100.00
29941;BME280;16801;53.562;10.038;2023-09-12T07:57:29;101179.22;;;22.16;100.00
29941;BME280;16801;53.562;10.038;2023-09-12T08:00:50;101183.00;;;21.81;100.00
29941;BME280;16801;53.562;10.038;2023-09-12T08:04:11;101186.81;;;21.80;100.00
29941;BME280;16801;53.562;10.038;2023-09-12T08:07:34;101185.00;;;21.66;100.00
29941;BME280;16801;53.562;10.038;2023-09-12T08:10:55;101195.16;;;21.72;100.00
29941;BME280;16801;53.562;10.038;2023-09-12T08:14:17;101207.91;;;22.07;100.00
29941;BME280;16801;53.562;10.038;2023-09-12T08:17:40;101210.66;;;22.13;100.00
29941;BME280;16801;53.562;10.038;2023-09-12T08:21:01;101210.13;;;22.31;100.00
29941;BME280;16801;53.562;10.038;2023-09-12T08:24:22;101222.66;;;22.40;100.00
29941;BME280;16801;53.562;10.038;2023-09-12T08:27:42;101224.31;;;22.88;100.00
29941;BME280;16801;53.562;10.038;2023-09-12T08:31:05;101215.59;;;22.59;100.00
29941;BME280;16801;53.562;10.038;2023-09-12T08:34:26;101213.72;;;22.72;100.00
29941;BME280;16801;53.562;10.038;2023-09-12T08:37:47;101216.88;;;22.28;100.00
29941;BME280;16801;53.562;10.038;2023-09-12T08:41:08;101216.91;;;22.82;98.71
29941;BME280;16801;53.562;10.038;2023-09-12T08:44:29;101220.91;;;22.73;97.34
29941;BME280;16801;53.562;10.038;2023-09-12T08:47:53;101230.44;;;22.77;96.51
29941;BME280;16801;53.562;10.038;2023-09-12T08:51:15;101222.53;;;22.61;95.58
29941;BME280;16801;53.562;10.038;2023-09-12T08:54:36;101239.72;;;21.95;98.46
29941;BME280;16801;53.562;10.038;2023-09-12T08:57:57;101249.72;;;22.02;100.00
29941;BME280;16801;53.562;10.038;2023-09-12T09:01:19;101238.72;;;22.43;100.00
29941;BME280;16801;53.562;10.038;2023-09-12T09:04:42;101234.59;;;22.60;99.44
29941;BME280;16801;53.562;10.038;2023-09-12T09:08:04;101239.03;;;22.61;98.78
29941;BME280;16801;53.562;10.038;2023-09-12T09:11:25;101232.41;;;23.03;96.56
29941;BME280;16801;53.562;10.038;2023-09-12T09:14:47;101228.03;;;23.41;94.92
29941;BME280;16801;53.562;10.038;2023-09-12T09:18:09;101233.75;;;23.33;93.95
29941;BME280;16801;53.562;10.038;2023-09-12T09:21:33;101241.75;;;23.15;93.25
29941;BME280;16801;53.562;10.038;2023-09-12T09:25:09;101243.66;;;23.21;93.37
29941;BME280;16801;53.562;10.038;2023-09-12T09:28:30;101240.13;;;22.67;94.74
29941;BME280;16801;53.562;10.038;2023-09-12T09:31:52;101247.59;;;22.86;95.83
29941;BME280;16801;53.562;10.038;2023-09-12T09:35:13;101239.34;;;22.86;95.24
29941;BME280;16801;53.562;10.038;2023-09-12T09:38:36;101238.81;;;23.30;94.02
29941;BME280;16801;53.562;10.038;2023-09-12T09:41:57;101234.81;;;23.58;92.85
29941;BME280;16801;53.562;10.038;2023-09-12T09:45:18;101234.59;;;23.47;92.11
29941;BME280;16801;53.562;10.038;2023-09-12T09:48:48;101233.97;;;23.45;92.44
29941;BME280;16801;53.562;10.038;2023-09-12T09:52:10;101236.69;;;23.32;93.29
29941;BME280;16801;53.562;10.038;2023-09-12T09:55:32;101250.06;;;23.41;93.78
29941;BME280;16801;53.562;10.038;2023-09-12T09:58:54;101257.84;;;23.25;93.97
29941;BME280;16801;53.562;10.038;2023-09-12T10:02:18;101269.66;;;23.05;95.05
29941;BME280;16801;53.562;10.038;2023-09-12T10:05:42;101284.66;;;22.56;96.56
29941;BME280;16801;53.562;10.038;2023-09-12T10:09:06;101271.09;;;22.48;99.34
29941;BME280;16801;53.562;10.038;2023-09-12T10:12:30;101266.56;;;22.27;98.76
29941;BME280;16801;53.562;10.038;2023-09-12T10:15:52;101261.75;;;22.36;100.00
29941;BME280;16801;53.562;10.038;2023-09-12T10:19:16;101269.31;;;22.68;99.29
29941;BME280;16801;53.562;10.038;2023-09-12T10:22:40;101267.69;;;22.46;97.29
29941;BME280;16801;53.562;10.038;2023-09-12T10:26:04;101274.06;;;22.12;97.78
29941;BME280;16801;53.562;10.038;2023-09-12T10:29:27;101272.09;;;22.34;98.05
29941;BME280;16801;53.562;10.038;2023-09-12T10:32:49;101265.66;;;22.20;96.33
29941;BME280;16801;53.562;10.038;2023-09-12T10:36:11;101261.56;;;22.44;95.31
29941;BME280;16801;53.562;10.038;2023-09-12T10:39:34;101263.75;;;22.55;94.59
29941;BME280;16801;53.562;10.038;2023-09-12T10:42:55;101265.22;;;22.51;95.03
29941;BME280;16801;53.562;10.038;2023-09-12T10:46:18;101263.13;;;22.18;96.25
29941;BME280;16801;53.562;10.038;2023-09-12T10:49:43;101256.09;;;22.50;95.78
29941;BME280;16801;53.562;10.038;2023-09-12T10:53:11;101266.66;;;22.12;96.67
29941;BME280;16801;53.562;10.038;2023-09-12T10:56:33;101265.25;;;22.23;96.85
29941;BME280;16801;53.562;10.038;2023-09-12T11:00:11;101255.78;;;22.32;96.35
29941;BME280;16801;53.562;10.038;2023-09-12T11:03:37;101259.19;;;22.00;97.06
29941;BME280;16801;53.562;10.038;2023-09-12T11:06:59;101264.56;;;22.14;96.91
29941;BME280;16801;53.562;10.038;2023-09-12T11:10:21;101251.66;;;22.08;96.03
29941;BME280;16801;53.562;10.038;2023-09-12T11:13:43;101259.00;;;21.80;96.88
29941;BME280;16801;53.562;10.038;2023-09-12T11:17:21;101264.16;;;21.83;98.27
29941;BME280;16801;53.562;10.038;2023-09-12T11:20:52;101264.81;;;22.19;97.70
29941;BME280;16801;53.562;10.038;2023-09-12T11:24:14;101264.78;;;21.85;97.85
29941;BME280;16801;53.562;10.038;2023-09-12T11:27:45;101256.25;;;21.80;98.84
29941;BME280;16801;53.562;10.038;2023-09-12T11:31:06;101263.28;;;21.83;98.46
29941;BME280;16801;53.562;10.038;2023-09-12T11:34:27;101261.34;;;21.56;99.19
29941;BME280;16801;53.562;10.038;2023-09-12T11:37:51;101261.84;;;21.66;99.10
29941;BME280;16801;53.562;10.038;2023-09-12T11:41:12;101260.88;;;21.73;98.99
29941;BME280;16801;53.562;10.038;2023-09-12T11:44:33;101253.06;;;21.98;98.95
29941;BME280;16801;53.562;10.038;2023-09-12T11:47:55;101262.84;;;22.07;98.16
29941;BME280;16801;53.562;10.038;2023-09-12T11:51:16;101260.41;;;21.70;99.25
29941;BME280;16801;53.562;10.038;2023-09-12T11:54:39;101263.50;;;21.60;100.00
29941;BME280;16801;53.562;10.038;2023-09-12T11:58:00;101268.47;;;21.50;100.00
29941;BME280;16801;53.562;10.038;2023-09-12T12:01:23;101256.69;;;21.77;100.00
29941;BME280;16801;53.562;10.038;2023-09-12T12:04:44;101263.94;;;21.85;100.00
29941;BME280;16801;53.562;10.038;2023-09-12T12:08:07;101262.75;;;21.94;100.00
29941;BME280;16801;53.562;10.038;2023-09-12T12:11:29;101250.91;;;21.93;100.00
29941;BME280;16801;53.562;10.038;2023-09-12T12:14:50;101250.16;;;21.57;100.00
29941;BME280;16801;53.562;10.038;2023-09-12T12:18:11;101249.03;;;21.24;100.00
29941;BME280;16801;53.562;10.038;2023-09-12T12:21:32;101246.53;;;21.08;100.00
29941;BME280;16801;53.562;10.038;2023-09-12T12:24:53;101237.19;;;21.44;100.00
29941;BME280;16801;53.562;10.038;2023-09-12T12:28:16;101234.25;;;21.74;100.00
29941;BME280;16801;53.562;10.038;2023-09-12T12:31:38;101226.06;;;21.80;100.00
29941;BME280;16801;53.562;10.038;2023-09-12T12:34:58;101219.59;;;22.22;100.00
29941;BME280;16801;53.562;10.038;2023-09-12T12:38:19;101206.69;;;22.16;100.00
29941;BME280;16801;53.562;10.038;2023-09-12T12:41:40;101190.50;;;21.93;100.00
29941;BME280;16801;53.562;10.038;2023-09-12T12:45:10;101186.59;;;22.09;100.00
29941;BME280;16801;53.562;10.038;2023-09-12T12:48:33;101169.91;;;22.64;100.00
29941;BME280;16801;53.562;10.038;2023-09-12T12:51:54;101171.75;;;22.44;99.96
29941;BME280;16801;53.562;10.038;2023-09-12T12:55:16;101176.38;;;22.44;99.52
29941;BME280;16801;53.562;10.038;2023-09-12T12:58:39;101182.63;;;22.72;99.20
29941;BME280;16801;53.562;10.038;2023-09-12T13:02:01;101182.88;;;22.90;98.71
29941;BME280;16801;53.562;10.038;2023-09-12T13:05:25;101185.66;;;23.10;97.18
29941;BME280;16801;53.562;10.038;2023-09-12T13:08:48;101190.16;;;22.50;97.98
29941;BME280;16801;53.562;10.038;2023-09-12T13:12:09;101202.03;;;21.82;100.00
29941;BME280;16801;53.562;10.038;2023-09-12T13:15:30;101194.88;;;21.32;100.00
29941;BME280;16801;53.562;10.038;2023-09-12T13:18:52;101197.97;;;21.23;100.00
29941;BME280;16801;53.562;10.038;2023-09-12T13:22:13;101201.50;;;21.44;100.00
29941;BME280;16801;53.562;10.038;2023-09-12T13:25:35;101197.91;;;21.72;100.00
29941;BME280;16801;53.562;10.038;2023-09-12T13:28:56;101199.09;;;21.56;100.00
29941;BME280;16801;53.562;10.038;2023-09-12T13:32:17;101202.47;;;21.58;100.00
29941;BME280;16801;53.562;10.038;2023-09-12T13:35:39;101206.69;;;22.16;100.00
29941;BME280;16801;53.562;10.038;2023-09-12T13:39:01;101205.16;;;22.07;100.00
29941;BME280;16801;53.562;10.038;2023-09-12T13:42:22;101189.06;;;23.64;95.54
29941;BME280;16801;53.562;10.038;2023-09-12T13:45:43;101193.53;;;23.39;92.45
29941;BME280;16801;53.562;10.038;2023-09-12T13:49:04;101196.91;;;23.47;92.41
29941;BME280;16801;53.562;10.038;2023-09-12T13:52:27;101205.53;;;22.45;93.15
29941;BME280;16801;53.562;10.038;2023-09-12T13:55:48;101195.06;;;22.61;95.44
29941;BME280;16801;53.562;10.038;2023-09-12T13:59:09;101192.75;;;22.65;95.15
29941;BME280;16801;53.562;10.038;2023-09-12T14:02:30;101194.09;;;22.82;93.58
29941;BME280;16801;53.562;10.038;2023-09-12T14:05:51;101188.84;;;23.20;92.88
29941;BME280;16801;53.562;10.038;2023-09-12T14:09:14;101199.59;;;22.95;92.18
29941;BME280;16801;53.562;10.038;2023-09-12T14:12:35;101203.88;;;22.50;93.62
29941;BME280;16801;53.562;10.038;2023-09-12T14:15:56;101201.72;;;22.39;94.87
29941;BME280;16801;53.562;10.038;2023-09-12T14:19:17;101197.41;;;22.64;95.41
29941;BME280;16801;53.562;10.038;2023-09-12T14:22:38;101207.13;;;22.19;96.36
29941;BME280;16801;53.562;10.038;2023-09-12T14:26:01;101204.06;;;22.01;97.48
29941;BME280;16801;53.562;10.038;2023-09-12T14:29:22;101212.16;;;22.16;96.70
29941;BME280;16801;53.562;10.038;2023-09-12T14:32:44;101211.44;;;21.94;96.83
29941;BME280;16801;53.562;10.038;2023-09-12T14:36:05;101209.22;;;22.11;97.92
29941;BME280;16801;53.562;10.038;2023-09-12T14:39:26;101205.19;;;22.13;97.45
29941;BME280;16801;53.562;10.038;2023-09-12T14:42:49;101209.69;;;22.21;97.23
29941;BME280;16801;53.562;10.038;2023-09-12T14:46:10;101197.94;;;22.47;95.69
29941;BME280;16801;53.562;10.038;2023-09-12T14:49:31;101197.16;;;22.59;95.12
29941;BME280;16801;53.562;10.038;2023-09-12T14:52:52;101184.81;;;23.09;92.73
29941;BME280;16801;53.562;10.038;2023-09-12T14:56:13;101186.50;;;23.03;90.42
29941;BME280;16801;53.562;10.038;2023-09-12T14:59:35;101188.47;;;23.36;90.03
29941;BME280;16801;53.562;10.038;2023-09-12T15:02:56;101190.94;;;23.31;89.14
29941;BME280;16801;53.562;10.038;2023-09-12T15:06:17;101188.41;;;23.16;89.82
29941;BME280;16801;53.562;10.038;2023-09-12T15:09:38;101198.47;;;24.27;86.68
29941;BME280;16801;53.562;10.038;2023-09-12T15:12:59;101190.31;;;23.81;85.77
29941;BME280;16801;53.562;10.038;2023-09-12T15:16:21;101185.69;;;23.55;86.45
29941;BME280;16801;53.562;10.038;2023-09-12T15:19:42;101179.91;;;24.09;85.12
29941;BME280;16801;53.562;10.038;2023-09-12T15:23:03;101179.06;;;23.89;84.06
29941;BME280;16801;53.562;10.038;2023-09-12T15:26:25;101172.22;;;24.62;82.64
29941;BME280;16801;53.562;10.038;2023-09-12T15:29:46;101166.63;;;25.13;80.36
29941;BME280;16801;53.562;10.038;2023-09-12T15:33:08;101166.91;;;25.29;78.87
29941;BME280;16801;53.562;10.038;2023-09-12T15:36:39;101162.34;;;25.66;77.59
29941;BME280;16801;53.562;10.038;2023-09-12T15:40:01;101171.81;;;24.65;79.62
29941;BME280;16801;53.562;10.038;2023-09-12T15:43:22;101167.13;;;25.03;78.05
29941;BME280;16801;53.562;10.038;2023-09-12T15:46:43;101161.47;;;23.97;80.77
29941;BME280;16801;53.562;10.038;2023-09-12T15:50:06;101167.44;;;23.74;83.36
29941;BME280;16801;53.562;10.038;2023-09-12T15:53:27;101175.97;;;23.40;83.80
29941;BME280;16801;53.562;10.038;2023-09-12T15:57:19;101160.03;;;23.22;85.79
29941;BME280;16801;53.562;10.038;2023-09-12T16:01:11;101163.78;;;23.93;84.31
29941;BME280;16801;53.562;10.038;2023-09-12T16:05:03;101179.66;;;24.24;81.87
29941;BME280;16801;53.562;10.038;2023-09-12T16:08:56;101175.09;;;24.42;82.05
29941;BME280;16801;53.562;10.038;2023-09-12T16:12:48;101166.78;;;23.85;80.93
29941;BME280;16801;53.562;10.038;2023-09-12T16:16:40;101168.56;;;23.40;82.67
29941;BME280;16801;53.562;10.038;2023-09-12T16:20:32;101168.97;;;23.44;84.45
29941;BME280;16801;53.562;10.038;2023-09-12T16:23:54;101164.31;;;23.51;84.26
29941;BME280;16801;53.562;10.038;2023-09-12T16:27:19;101170.81;;;22.97;85.49
29941;BME280;16801;53.562;10.038;2023-09-12T16:30:42;101169.38;;;23.15;85.04
29941;BME280;16801;53.562;10.038;2023-09-12T16:34:03;101176.75;;;22.88;86.51
29941;BME280;16801;53.562;10.038;2023-09-12T16:37:24;101176.34;;;23.11;87.06
29941;BME280;16801;53.562;10.038;2023-09-12T16:40:45;101181.47;;;23.33;86.07
29941;BME280;16801;53.562;10.038;2023-09-12T16:44:07;101189.53;;;22.55;87.88
29941;BME280;16801;53.562;10.038;2023-09-12T16:47:28;101197.72;;;22.42;88.99
29941;BME280;16801;53.562;10.038;2023-09-12T16:50:49;101193.53;;;22.52;90.50
29941;BME280;16801;53.562;10.038;2023-09-12T16:54:10;101195.97;;;22.81;89.16
29941;BME280;16801;53.562;10.038;2023-09-12T16:57:31;101190.75;;;22.46;90.20
29941;BME280;16801;53.562;10.038;2023-09-12T17:00:54;101189.31;;;22.56;90.13
29941;BME280;16801;53.562;10.038;2023-09-12T17:04:15;101191.22;;;22.56;89.51
29941;BME280;16801;53.562;10.038;2023-09-12T17:07:36;101190.41;;;22.62;90.16
29941;BME280;16801;53.562;10.038;2023-09-12T17:10:57;101198.72;;;22.27;90.59
29941;BME280;16801;53.562;10.038;2023-09-12T17:14:18;101200.72;;;22.06;92.25
29941;BME280;16801;53.562;10.038;2023-09-12T17:17:40;101192.94;;;22.16;92.91
29941;BME280;16801;53.562;10.038;2023-09-12T17:21:01;101190.47;;;22.27;92.84
29941;BME280;16801;53.562;10.038;2023-09-12T17:24:22;101201.78;;;22.05;93.12
29941;BME280;16801;53.562;10.038;2023-09-12T17:27:43;101193.47;;;21.92;94.35